Time;durP1;ratioP1;P1;durP2;ratioP2;P2;SDS_P1;SDS_P2;PMS_P1;PMS_P2;Temp;Humidity;BMP_temperature;BMP_pressure;BME280_temperature;BME280_humidity;BME280_pressure;Samples;Min_cycle;Max_cycle;Signal;HPM_P1;HPM_P2
2021/05/03 00:02:04;;;;;;;37.10;16.55;;;14.70;90.70;;;;;;5155736;27;20117;-75
2021/05/03 00:04:29;;;;;;;31.88;16.60;;;14.70;90.40;;;;;;5155530;27;20423;-75
2021/05/03 00:06:55;;;;;;;30.38;17.00;;;14.70;90.50;;;;;;5155452;27;20056;-74
2021/05/03 00:09:21;;;;;;;34.85;16.40;;;14.70;90.50;;;;;;5155397;27;20038;-74
2021/05/03 00:11:47;;;;;;;32.42;14.85;;;14.70;90.50;;;;;;5137600;27;20113;-74
2021/05/03 00:14:12;;;;;;;26.33;15.48;;;14.70;90.50;;;;;;5155202;27;20034;-74
2021/05/03 00:16:38;;;;;;;30.13;15.15;;;14.60;90.50;;;;;;5155588;27;20018;-75
2021/05/03 00:19:04;;;;;;;33.63;16.52;;;14.60;90.50;;;;;;5155380;27;20022;-74
2021/05/03 00:21:30;;;;;;;37.95;17.50;;;14.60;90.50;;;;;;5155384;27;20023;-75
2021/05/03 00:23:56;;;;;;;37.13;18.35;;;14.60;90.50;;;;;;5155203;27;20027;-74
2021/05/03 00:26:21;;;;;;;35.35;17.52;;;14.60;90.50;;;;;;5155513;27;20029;-74
2021/05/03 00:28:47;;;;;;;33.55;19.38;;;14.60;90.50;;;;;;5154293;27;20036;-74
2021/05/03 00:31:12;;;;;;;42.15;18.48;;;14.50;90.50;;;;;;5136769;27;20430;-74
2021/05/03 00:33:38;;;;;;;43.75;20.00;;;14.50;90.60;;;;;;5154996;27;20113;-74
2021/05/03 00:36:05;;;;;;;40.13;19.10;;;14.50;90.60;;;;;;5154825;27;20055;-74
2021/05/03 00:38:31;;;;;;;33.30;17.73;;;14.50;90.60;;;;;;5155703;27;20026;-76
2021/05/03 00:41:00;;;;;;;32.88;17.70;;;14.50;90.70;;;;;;5155007;27;20042;-74
2021/05/03 00:43:26;;;;;;;31.25;17.38;;;14.50;90.70;;;;;;5154456;27;20099;-74
2021/05/03 00:45:52;;;;;;;39.90;18.30;;;14.50;90.70;;;;;;5155000;27;20019;-74
2021/05/03 00:48:18;;;;;;;32.65;15.43;;;14.40;90.70;;;;;;5132736;27;20115;-74
2021/05/03 00:50:45;;;;;;;33.65;18.45;;;14.40;90.70;;;;;;5117446;27;20436;-75
2021/05/03 00:53:11;;;;;;;36.38;17.02;;;14.40;90.80;;;;;;5143707;27;20051;-75
2021/05/03 00:55:37;;;;;;;30.10;16.25;;;14.40;90.80;;;;;;5143543;27;20468;-74
2021/05/03 00:58:04;;;;;;;29.75;15.27;;;14.40;90.90;;;;;;5123503;27;20020;-74
2021/05/03 01:00:31;;;;;;;33.47;17.08;;;14.40;90.90;;;;;;5145127;27;20034;-75
2021/05/03 01:02:57;;;;;;;37.90;17.83;;;14.40;90.90;;;;;;5142896;27;20023;-74
2021/05/03 01:05:27;;;;;;;37.55;16.35;;;14.40;91.00;;;;;;5125708;27;20054;-75
2021/05/03 01:07:53;;;;;;;29.58;16.08;;;14.40;91.00;;;;;;5124285;27;20015;-75
2021/05/03 01:10:18;;;;;;;26.80;14.98;;;14.40;91.10;;;;;;5144912;27;20027;-75
2021/05/03 01:12:44;;;;;;;33.95;17.42;;;14.40;91.10;;;;;;5123174;27;20031;-74
2021/05/03 01:15:11;;;;;;;34.72;17.55;;;14.50;91.10;;;;;;5145195;27;20422;-77
2021/05/03 01:17:40;;;;;;;42.10;17.17;;;14.50;91.10;;;;;;5142602;27;20106;-75
2021/05/03 01:20:14;;;;;;;36.22;16.83;;;14.50;91.10;;;;;;5143750;27;20084;-75
2021/05/03 01:22:41;;;;;;;38.08;16.70;;;14.50;91.00;;;;;;5145060;27;20357;-77
2021/05/03 01:25:09;;;;;;;40.42;16.63;;;14.40;91.00;;;;;;5141897;27;20430;-75
2021/05/03 01:27:35;;;;;;;29.88;16.67;;;14.50;91.00;;;;;;5142712;27;20508;-75
2021/05/03 01:30:06;;;;;;;34.65;17.20;;;14.40;91.00;;;;;;5143751;27;20030;-75
2021/05/03 01:32:34;;;;;;;39.97;16.35;;;14.50;91.10;;;;;;5142201;27;20039;-75
2021/05/03 01:35:00;;;;;;;28.15;16.38;;;14.40;91.00;;;;;;5123693;27;20038;-76
2021/05/03 01:37:25;;;;;;;34.00;17.45;;;14.40;91.00;;;;;;5144144;27;20015;-75
2021/05/03 01:39:51;;;;;;;33.90;16.95;;;14.40;91.00;;;;;;5141840;27;20085;-75
2021/05/03 01:42:17;;;;;;;34.08;15.25;;;14.40;91.00;;;;;;5142854;27;20031;-75
2021/05/03 01:44:43;;;;;;;40.40;17.75;;;14.40;91.00;;;;;;5143587;27;20060;-75
2021/05/03 01:47:10;;;;;;;34.30;17.65;;;14.40;91.00;;;;;;5142503;27;20080;-75
2021/05/03 01:49:37;;;;;;;31.40;17.13;;;14.40;91.00;;;;;;5143108;27;20023;-75
2021/05/03 01:52:03;;;;;;;33.65;17.92;;;14.40;91.00;;;;;;5141440;27;20031;-76
2021/05/03 01:54:30;;;;;;;34.47;17.55;;;14.30;90.90;;;;;;5143560;27;20110;-75
2021/05/03 01:56:55;;;;;;;34.92;18.52;;;14.30;90.90;;;;;;5144764;27;20029;-75
2021/05/03 01:59:21;;;;;;;40.38;18.73;;;14.30;90.90;;;;;;5143534;27;20027;-75
2021/05/03 02:01:47;;;;;;;34.15;18.27;;;14.20;90.90;;;;;;5146972;27;20512;-74
2021/05/03 02:04:13;;;;;;;39.40;19.20;;;14.20;90.90;;;;;;5146081;27;20062;-75
2021/05/03 02:06:39;;;;;;;37.42;19.60;;;14.20;91.00;;;;;;5146125;27;20019;-75
2021/05/03 02:09:10;;;;;;;38.83;18.52;;;14.10;91.00;;;;;;5147473;27;20054;-75
2021/05/03 02:11:36;;;;;;;40.45;18.00;;;14.10;91.00;;;;;;5146552;27;20019;-75
2021/05/03 02:14:03;;;;;;;40.50;18.60;;;14.10;91.00;;;;;;5145273;27;20063;-75
2021/05/03 02:16:30;;;;;;;37.75;20.20;;;14.10;91.30;;;;;;5144267;27;20060;-75
2021/05/03 02:18:55;;;;;;;38.05;19.80;;;14.10;91.10;;;;;;5147141;27;20057;-74
2021/05/03 02:21:21;;;;;;;37.47;18.05;;;14.10;91.30;;;;;;5147347;27;20047;-75
2021/05/03 02:23:48;;;;;;;39.17;18.55;;;14.00;91.20;;;;;;5144869;27;20023;-74
2021/05/03 02:26:14;;;;;;;39.83;18.77;;;14.10;91.30;;;;;;5148185;27;20034;-75
2021/05/03 02:28:40;;;;;;;40.30;20.40;;;14.00;91.30;;;;;;5126814;27;20030;-76
2021/05/03 02:31:06;;;;;;;33.35;17.92;;;14.10;91.40;;;;;;5147939;27;20030;-75
2021/05/03 02:33:32;;;;;;;38.25;18.52;;;14.10;91.50;;;;;;5145328;27;20031;-75
2021/05/03 02:35:57;;;;;;;34.97;18.23;;;14.10;91.50;;;;;;5145910;27;20472;-74
2021/05/03 02:38:24;;;;;;;32.60;18.50;;;14.10;91.50;;;;;;5147147;27;20026;-75
2021/05/03 02:40:50;;;;;;;37.72;18.67;;;14.20;91.60;;;;;;5126533;27;20031;-74
2021/05/03 02:43:16;;;;;;;43.67;20.35;;;14.20;91.50;;;;;;5145873;27;20151;-74
2021/05/03 02:45:42;;;;;;;37.05;19.50;;;14.10;91.50;;;;;;5125379;27;20050;-75
2021/05/03 02:48:08;;;;;;;36.70;18.60;;;14.10;91.60;;;;;;5144734;27;20026;-75
2021/05/03 02:50:34;;;;;;;43.20;19.05;;;14.20;91.70;;;;;;5144368;27;20023;-74
2021/05/03 02:52:59;;;;;;;37.35;19.00;;;14.20;91.70;;;;;;5144877;27;20023;-74
2021/05/03 02:55:25;;;;;;;37.35;19.67;;;14.20;91.70;;;;;;5146401;27;20038;-75
2021/05/03 02:57:51;;;;;;;33.70;18.10;;;14.30;91.80;;;;;;5146535;27;20031;-76
2021/05/03 03:00:29;;;;;;;40.10;18.45;;;14.30;91.80;;;;;;5147356;27;20035;-74
2021/05/03 03:02:55;;;;;;;39.67;18.23;;;14.30;91.80;;;;;;5147743;27;20015;-74
2021/05/03 03:05:21;;;;;;;45.30;18.95;;;14.40;91.80;;;;;;5144645;27;20049;-76
2021/05/03 03:07:49;;;;;;;36.30;18.08;;;14.40;91.90;;;;;;5146510;27;20019;-75
2021/05/03 03:10:15;;;;;;;33.88;17.75;;;14.40;91.90;;;;;;5156990;27;20054;-75
2021/05/03 03:12:40;;;;;;;31.35;16.83;;;14.50;91.90;;;;;;5155010;27;20062;-75
2021/05/03 03:15:11;;;;;;;35.95;17.55;;;14.50;91.90;;;;;;5156443;27;20031;-75
2021/05/03 03:17:37;;;;;;;37.80;17.35;;;14.60;91.90;;;;;;5156643;27;20349;-75
2021/05/03 03:20:07;;;;;;;34.33;17.73;;;14.60;91.90;;;;;;5156239;27;20480;-75
2021/05/03 03:22:34;;;;;;;34.25;18.48;;;14.70;91.90;;;;;;5156551;27;20034;-76
2021/05/03 03:24:59;;;;;;;33.60;17.27;;;14.70;91.90;;;;;;5156570;27;20101;-75
2021/05/03 03:27:25;;;;;;;34.35;17.80;;;14.80;91.90;;;;;;5156407;27;20057;-75
2021/05/03 03:29:51;;;;;;;33.50;17.52;;;14.90;91.80;;;;;;5156246;27;20023;-75
2021/05/03 03:32:17;;;;;;;32.38;17.30;;;14.90;91.70;;;;;;5156274;27;20074;-75
2021/05/03 03:34:42;;;;;;;37.08;17.45;;;15.00;91.60;;;;;;5156335;27;20031;-75
2021/05/03 03:37:08;;;;;;;34.13;17.20;;;15.00;91.60;;;;;;5156017;27;20107;-75
2021/05/03 03:39:34;;;;;;;33.47;17.15;;;15.00;91.60;;;;;;5155691;27;20454;-76
2021/05/03 03:41:59;;;;;;;28.52;16.13;;;15.10;91.60;;;;;;5156571;27;20079;-75
2021/05/03 03:44:25;;;;;;;33.85;17.05;;;15.20;91.60;;;;;;5156253;27;20027;-75
2021/05/03 03:46:51;;;;;;;31.00;16.10;;;15.20;91.60;;;;;;5155133;27;20029;-75
2021/05/03 03:49:17;;;;;;;29.42;15.95;;;15.30;91.60;;;;;;5156307;27;20031;-75
2021/05/03 03:51:43;;;;;;;31.40;15.98;;;15.30;91.60;;;;;;5155831;27;20068;-76
2021/05/03 03:54:09;;;;;;;32.38;16.80;;;15.40;91.50;;;;;;5155722;27;20472;-75
2021/05/03 03:56:34;;;;;;;31.80;16.13;;;15.50;91.50;;;;;;5155639;27;20053;-79
2021/05/03 03:59:00;;;;;;;24.52;14.60;;;15.60;91.50;;;;;;5155822;27;20031;-75
2021/05/03 04:01:29;;;;;;;31.25;15.35;;;15.70;91.50;;;;;;5155910;27;20111;-76
2021/05/03 04:04:01;;;;;;;25.73;13.95;;;15.80;91.40;;;;;;5137176;27;20488;-74
2021/05/03 04:25:38;;;;;;;15.35;8.23;;;16.80;89.00;;;;;;5155424;27;20027;-74
2021/05/03 04:28:05;;;;;;;13.60;7.38;;;16.90;87.90;;;;;;5155379;27;20052;-76
2021/05/03 04:30:31;;;;;;;10.15;6.65;;;17.00;87.00;;;;;;5154904;27;20111;-74
2021/05/03 04:32:57;;;;;;;14.35;7.78;;;17.10;85.40;;;;;;5155222;27;20056;-75
2021/05/03 04:35:23;;;;;;;14.98;6.88;;;17.20;84.60;;;;;;5132937;27;20468;-75
2021/05/03 04:37:48;;;;;;;9.15;6.10;;;17.30;83.70;;;;;;5115943;27;20034;-74
2021/05/03 04:40:14;;;;;;;9.60;5.90;;;17.30;82.70;;;;;;5154473;27;20042;-75
2021/05/03 04:42:40;;;;;;;12.40;6.88;;;17.40;81.40;;;;;;5136249;27;20113;-76
2021/05/03 04:45:14;;;;;;;17.30;7.25;;;17.40;81.10;;;;;;5155199;27;20031;-74
2021/05/03 04:47:40;;;;;;;10.68;5.97;;;17.40;80.20;;;;;;5154753;27;20033;-75
2021/05/03 04:50:08;;;;;;;10.30;5.97;;;17.40;79.60;;;;;;5155216;27;20023;-75
2021/05/03 04:52:35;;;;;;;10.55;6.20;;;17.40;78.80;;;;;;5153766;27;20022;-75
2021/05/03 04:55:01;;;;;;;8.93;5.15;;;17.40;77.70;;;;;;5141913;27;20118;-75
2021/05/03 04:57:26;;;;;;;9.02;5.00;;;17.40;77.40;;;;;;5142122;27;20102;-75
2021/05/03 04:59:52;;;;;;;9.05;5.32;;;17.50;76.90;;;;;;5154930;27;20054;-75
2021/05/03 05:02:18;;;;;;;13.23;4.68;;;17.50;76.40;;;;;;5154472;27;20029;-75
2021/05/03 05:04:44;;;;;;;9.20;5.25;;;17.60;75.60;;;;;;5145679;27;20033;-76
2021/05/03 05:07:09;;;;;;;8.80;4.75;;;17.70;75.20;;;;;;5154182;27;20026;-75
2021/05/03 05:09:35;;;;;;;7.82;5.07;;;17.70;74.20;;;;;;5154478;27;20026;-75
2021/05/03 05:12:01;;;;;;;5.30;4.10;;;17.80;73.50;;;;;;5154669;27;20023;-76
2021/05/03 05:14:27;;;;;;;7.20;4.90;;;17.80;73.00;;;;;;5136148;27;20026;-76
2021/05/03 05:16:52;;;;;;;8.52;5.07;;;17.80;72.60;;;;;;5154208;27;20027;-76
2021/05/03 05:19:18;;;;;;;7.50;4.80;;;17.90;72.50;;;;;;5154449;27;20023;-76
2021/05/03 05:21:45;;;;;;;8.23;4.70;;;18.00;72.00;;;;;;5154288;27;20029;-76
2021/05/03 05:24:11;;;;;;;6.75;4.80;;;18.00;71.70;;;;;;5154878;27;20070;-76
2021/05/03 05:26:37;;;;;;;7.15;4.63;;;18.10;71.60;;;;;;5154547;27;20054;-76
2021/05/03 05:29:04;;;;;;;7.47;4.20;;;18.10;71.10;;;;;;5154228;27;20506;-75
2021/05/03 05:31:29;;;;;;;6.07;4.03;;;18.10;70.10;;;;;;5154574;27;20027;-75
2021/05/03 05:33:55;;;;;;;6.88;4.53;;;18.20;69.80;;;;;;5148678;27;20034;-76
2021/05/03 05:36:21;;;;;;;7.97;4.22;;;18.20;69.70;;;;;;5151120;27;20491;-75
2021/05/03 05:38:47;;;;;;;6.97;3.85;;;18.30;69.00;;;;;;5158794;27;20502;-77
2021/05/03 05:41:14;;;;;;;4.60;3.72;;;18.30;68.50;;;;;;5139912;27;20027;-75
2021/05/03 05:43:41;;;;;;;7.93;3.65;;;18.30;67.90;;;;;;5150857;27;20114;-75
2021/05/03 05:46:08;;;;;;;5.47;3.50;;;18.30;67.80;;;;;;5137453;27;20434;-75
2021/05/03 05:48:35;;;;;;;5.35;4.07;;;18.20;67.40;;;;;;5137669;27;20050;-75
2021/05/03 05:51:01;;;;;;;7.80;4.30;;;18.20;67.60;;;;;;5119114;27;20026;-76
2021/05/03 05:53:27;;;;;;;4.78;3.67;;;18.20;67.50;;;;;;5119170;27;20050;-75
2021/05/03 05:55:53;;;;;;;5.00;3.85;;;18.10;67.20;;;;;;5152267;27;20450;-75
2021/05/03 05:58:18;;;;;;;6.53;4.13;;;18.10;67.00;;;;;;5157918;27;20110;-75
2021/05/03 06:00:46;;;;;;;7.63;4.30;;;18.10;67.20;;;;;;5157356;27;20022;-76
2021/05/03 06:03:12;;;;;;;7.82;4.20;;;18.00;67.40;;;;;;5157957;27;20080;-75
2021/05/03 06:05:37;;;;;;;6.97;4.63;;;17.90;67.40;;;;;;5143389;27;20027;-76
2021/05/03 06:08:04;;;;;;;6.07;4.38;;;17.90;67.70;;;;;;5133802;27;20035;-75
2021/05/03 06:10:30;;;;;;;5.63;4.13;;;17.80;67.40;;;;;;5135920;27;20023;-75
2021/05/03 06:12:55;;;;;;;6.07;4.68;;;17.70;67.30;;;;;;5117802;27;20027;-75
2021/05/03 06:15:21;;;;;;;8.35;4.60;;;17.50;67.60;;;;;;5147190;27;20110;-77
2021/05/03 06:17:47;;;;;;;8.20;4.50;;;17.40;68.00;;;;;;5155385;27;20027;-77
2021/05/03 06:20:13;;;;;;;11.27;5.50;;;17.30;68.30;;;;;;5156902;27;20038;-77
2021/05/03 06:22:39;;;;;;;6.18;4.40;;;17.20;68.70;;;;;;5157142;27;20050;-75
2021/05/03 06:25:06;;;;;;;7.00;5.10;;;17.20;69.20;;;;;;5157369;27;20503;-76
2021/05/03 06:27:32;;;;;;;8.88;5.07;;;17.20;69.70;;;;;;5157489;27;20030;-77
2021/05/03 06:29:58;;;;;;;7.25;5.20;;;17.20;69.90;;;;;;5157373;27;20022;-75
2021/05/03 06:32:24;;;;;;;8.23;5.72;;;17.30;70.10;;;;;;5157626;27;20444;-76
2021/05/03 06:34:49;;;;;;;6.15;4.97;;;17.30;70.70;;;;;;5157281;27;20094;-76
2021/05/03 06:37:15;;;;;;;6.30;5.10;;;17.30;70.20;;;;;;5157423;27;20035;-75
2021/05/03 06:39:41;;;;;;;9.02;5.38;;;17.30;70.80;;;;;;5157050;27;20464;-76
2021/05/03 06:42:07;;;;;;;8.18;5.32;;;17.30;70.10;;;;;;5144498;27;20059;-75
2021/05/03 06:44:34;;;;;;;5.32;4.75;;;17.30;70.30;;;;;;5156001;27;20038;-77
2021/05/03 06:47:02;;;;;;;6.47;4.93;;;17.30;70.50;;;;;;5155846;27;20018;-74
2021/05/03 06:49:28;;;;;;;6.93;5.07;;;17.30;70.30;;;;;;5157252;27;20094;-74
2021/05/03 06:51:54;;;;;;;9.25;4.60;;;17.30;70.20;;;;;;5157108;27;20057;-75
2021/05/03 06:54:20;;;;;;;7.78;4.60;;;17.40;69.80;;;;;;5138366;27;20023;-75
2021/05/03 06:56:46;;;;;;;6.82;5.10;;;17.40;70.10;;;;;;5157415;27;20099;-76
2021/05/03 06:59:12;;;;;;;11.10;4.97;;;17.50;69.60;;;;;;5156905;27;20022;-76
2021/05/03 07:01:37;;;;;;;6.07;4.63;;;17.60;69.60;;;;;;5141784;27;20023;-76
2021/05/03 07:04:03;;;;;;;9.43;5.43;;;17.80;69.70;;;;;;5117747;27;20087;-73
2021/05/03 07:06:29;;;;;;;6.03;4.43;;;17.90;69.70;;;;;;5149740;27;20034;-74
2021/05/03 07:08:54;;;;;;;7.25;4.43;;;18.10;69.10;;;;;;5156549;27;20071;-73
2021/05/03 07:11:22;;;;;;;5.35;3.83;;;18.30;68.40;;;;;;5155860;27;20018;-73
2021/05/03 07:13:48;;;;;;;4.45;3.97;;;18.30;67.20;;;;;;5138032;27;20468;-75
2021/05/03 07:16:14;;;;;;;4.28;3.28;;;18.30;66.20;;;;;;5153901;27;20023;-76
2021/05/03 07:18:40;;;;;;;5.97;3.45;;;18.30;65.10;;;;;;5155892;27;20022;-74
2021/05/03 07:21:06;;;;;;;4.07;3.25;;;18.40;63.90;;;;;;5156204;27;20058;-73
2021/05/03 07:23:32;;;;;;;3.05;2.60;;;18.40;62.40;;;;;;5156365;27;20045;-74
2021/05/03 07:25:59;;;;;;;3.33;2.35;;;18.50;61.20;;;;;;5156345;27;20023;-74
2021/05/03 07:28:25;;;;;;;4.72;2.95;;;18.50;60.20;;;;;;5137968;27;20027;-74
2021/05/03 07:30:57;;;;;;;3.58;3.00;;;18.60;60.00;;;;;;5156728;27;20360;-75
2021/05/03 07:33:23;;;;;;;3.85;3.08;;;18.70;59.80;;;;;;5156361;27;20122;-74
2021/05/03 07:35:49;;;;;;;4.93;3.00;;;18.80;59.40;;;;;;5155576;27;20111;-75
2021/05/03 07:38:15;;;;;;;3.75;2.80;;;18.90;58.70;;;;;;5137718;27;20072;-73
2021/05/03 07:40:40;;;;;;;3.63;2.83;;;18.90;58.20;;;;;;5156052;27;20035;-74
2021/05/03 07:46:28;;;;;;;5.38;3.05;;;19.00;58.20;;;;;;5133916;27;20086;-75
2021/05/03 07:48:56;;;;;;;3.55;2.55;;;19.20;58.30;;;;;;5150567;27;20038;-76
2021/05/03 07:51:22;;;;;;;2.85;2.55;;;19.40;57.80;;;;;;5154227;27;20030;-75
2021/05/03 07:53:50;;;;;;;3.95;2.58;;;19.50;57.20;;;;;;5155250;27;20460;-75
2021/05/03 07:56:15;;;;;;;3.92;2.95;;;19.60;57.00;;;;;;5156014;27;20380;-76
2021/05/03 07:58:45;;;;;;;2.70;2.50;;;19.70;57.20;;;;;;5134380;27;20023;-76
2021/05/03 08:01:12;;;;;;;2.95;2.65;;;19.70;56.50;;;;;;5154028;27;20026;-77
2021/05/03 08:03:40;;;;;;;3.40;2.40;;;19.70;56.50;;;;;;5155661;27;20022;-75
2021/05/03 08:06:07;;;;;;;3.72;2.83;;;19.80;55.80;;;;;;5154959;27;20102;-77
2021/05/03 08:08:33;;;;;;;3.47;2.50;;;19.80;55.60;;;;;;5149351;27;20149;-75
2021/05/03 08:10:59;;;;;;;5.43;2.78;;;20.00;55.20;;;;;;5153077;27;20036;-78
2021/05/03 08:13:28;;;;;;;2.72;2.38;;;20.20;55.30;;;;;;5154624;27;20033;-76
2021/05/03 08:15:55;;;;;;;4.05;2.30;;;20.50;54.50;;;;;;5155556;27;20026;-76
2021/05/03 08:18:21;;;;;;;2.85;2.28;;;20.80;53.40;;;;;;5136655;27;20031;-76
2021/05/03 08:20:46;;;;;;;3.38;2.60;;;20.90;52.60;;;;;;5154924;27;20052;-76
2021/05/03 08:23:18;;;;;;;2.85;2.65;;;20.90;52.70;;;;;;5136823;27;20037;-76
2021/05/03 08:25:47;;;;;;;4.05;2.35;;;21.00;52.40;;;;;;5155415;27;20352;-76
2021/05/03 08:28:14;;;;;;;6.03;2.38;;;21.00;52.00;;;;;;5155146;27;20018;-76
2021/05/03 08:30:39;;;;;;;1.95;1.77;;;21.20;51.60;;;;;;5154287;27;20107;-80
2021/05/03 08:33:05;;;;;;;3.03;1.80;;;21.30;51.00;;;;;;5152559;27;20065;-80
2021/05/03 08:35:31;;;;;;;3.17;1.95;;;21.60;50.00;;;;;;5153321;27;20029;-77
2021/05/03 08:37:57;;;;;;;2.40;2.03;;;21.90;49.40;;;;;;5130804;27;20483;-76
2021/05/03 08:40:22;;;;;;;4.07;2.08;;;22.20;48.70;;;;;;5132219;27;20464;-78
2021/05/03 08:42:48;;;;;;;2.67;1.83;;;22.30;47.90;;;;;;5146008;27;20213;-76
2021/05/03 08:45:15;;;;;;;1.88;1.65;;;22.20;48.10;;;;;;5153909;27;20027;-76
2021/05/03 08:47:52;;;;;;;6.22;2.00;;;22.20;48.40;;;;;;5153975;27;20037;-75
2021/05/03 08:50:26;;;;;;;4.57;1.77;;;22.50;48.50;;;;;;5154704;27;20097;-75
2021/05/03 08:52:55;;;;;;;4.60;1.92;;;22.90;47.70;;;;;;5155018;27;20019;-75
2021/05/03 08:55:21;;;;;;;7.93;2.20;;;23.00;47.20;;;;;;5154954;27;20109;-75
2021/05/03 08:57:47;;;;;;;2.35;2.15;;;23.20;47.30;;;;;;5154853;27;20105;-74
2021/05/03 09:00:15;;;;;;;4.10;1.90;;;23.50;46.60;;;;;;5154685;27;20038;-75
2021/05/03 09:02:45;;;;;;;2.13;1.70;;;23.50;46.20;;;;;;5154478;27;20026;-75
2021/05/03 09:05:12;;;;;;;4.25;1.80;;;23.50;46.10;;;;;;5154382;27;20468;-75
2021/05/03 09:14:21;;;;;;;3.10;2.00;;;23.60;46.10;;;;;;5138765;27;20110;-75
2021/05/03 09:16:47;;;;;;;8.20;2.35;;;23.60;46.60;;;;;;5154046;27;20058;-75
2021/05/03 09:19:13;;;;;;;3.65;2.42;;;24.40;46.80;;;;;;5154414;27;20027;-75
2021/05/03 09:21:40;;;;;;;2.60;2.40;;;25.50;45.80;;;;;;5154076;27;20495;-75
2021/05/03 09:24:13;;;;;;;6.32;2.03;;;26.70;44.40;;;;;;5154379;27;20030;-75
2021/05/03 09:27:07;;;;;;;3.20;1.90;;;27.50;42.90;;;;;;5154609;27;20019;-75
2021/05/03 09:29:44;;;;;;;2.80;1.98;;;28.40;42.20;;;;;;5138197;27;20039;-75
2021/05/03 09:32:15;;;;;;;2.47;1.75;;;29.20;41.00;;;;;;5154028;27;20045;-76
2021/05/03 09:34:46;;;;;;;1.92;1.80;;;29.80;39.60;;;;;;5154322;27;20115;-76
2021/05/03 09:37:30;;;;;;;2.20;2.00;;;30.10;39.00;;;;;;5154424;27;20033;-76
2021/05/03 09:39:57;;;;;;;2.70;1.88;;;30.60;38.60;;;;;;5154430;27;20070;-76
2021/05/03 09:42:24;;;;;;;5.40;3.03;;;31.10;38.50;;;;;;5153914;27;20476;-76
2021/05/03 09:45:17;;;;;;;3.40;1.90;;;31.20;37.40;;;;;;5154248;27;20118;-76
2021/05/03 09:47:44;;;;;;;3.17;1.90;;;30.80;37.30;;;;;;5154400;27;20053;-75
2021/05/03 09:50:14;;;;;;;3.53;1.73;;;30.90;37.60;;;;;;5153894;27;20407;-76
2021/05/03 09:53:07;;;;;;;1.70;1.60;;;30.90;36.90;;;;;;5154152;27;20026;-76
2021/05/03 09:55:42;;;;;;;3.97;2.00;;;30.80;36.80;;;;;;5154388;27;20034;-76
2021/05/03 09:58:15;;;;;;;5.07;4.28;;;31.10;36.40;;;;;;5153813;27;20046;-76
2021/05/03 10:00:47;;;;;;;1.80;1.70;;;30.80;36.20;;;;;;5135920;27;20353;-76
2021/05/03 10:06:09;;;;;;;4.13;2.15;;;29.90;37.00;;;;;;5131052;28;20028;-76
2021/05/03 10:08:37;;;;;;;6.32;1.98;;;29.50;36.70;;;;;;5132233;28;20046;-76
2021/05/03 10:11:06;;;;;;;2.00;1.90;;;29.20;37.00;;;;;;5132814;28;20079;-76
2021/05/03 10:13:33;;;;;;;5.18;2.20;;;28.50;36.90;;;;;;5132785;27;20027;-76
2021/05/03 10:16:00;;;;;;;3.05;2.47;;;27.50;38.00;;;;;;5132468;28;20064;-77
2021/05/03 10:18:28;;;;;;;2.58;1.98;;;26.90;38.70;;;;;;5132247;28;20027;-76
2021/05/03 10:20:56;;;;;;;2.50;1.90;;;26.60;39.30;;;;;;5132622;27;20384;-77
2021/05/03 10:23:24;;;;;;;2.35;2.15;;;26.00;39.50;;;;;;5136213;27;20027;-75
2021/05/03 10:25:59;;;;;;;2.88;2.25;;;25.10;39.90;;;;;;5135251;27;20031;-79
2021/05/03 10:28:26;;;;;;;2.30;2.10;;;24.20;40.80;;;;;;5135916;27;20409;-81
2021/05/03 10:30:59;;;;;;;3.13;2.20;;;23.30;42.00;;;;;;5136554;27;20026;-80
2021/05/03 10:33:38;;;;;;;2.40;2.20;;;22.60;43.20;;;;;;5136335;27;20027;-81
2021/05/03 10:36:06;;;;;;;3.60;2.20;;;21.80;44.20;;;;;;5152714;27;20031;-79
2021/05/03 10:38:37;;;;;;;4.03;2.25;;;21.20;45.10;;;;;;5157952;27;20027;-79
2021/05/03 10:41:19;;;;;;;3.67;2.53;;;20.70;46.60;;;;;;5157463;27;20057;-80
2021/05/03 10:43:45;;;;;;;2.75;2.42;;;20.20;47.30;;;;;;5157380;27;20062;-80
2021/05/03 10:49:22;;;;;;;2.92;2.70;;;19.20;49.40;;;;;;5157476;27;20042;-76
2021/05/03 10:52:02;;;;;;;2.72;2.53;;;18.80;50.30;;;;;;5157135;27;20023;-76
2021/05/03 10:54:32;;;;;;;3.10;2.80;;;18.40;51.10;;;;;;5139125;27;20471;-76
2021/05/03 10:57:00;;;;;;;4.65;3.40;;;18.10;51.90;;;;;;5138722;27;20129;-75
2021/05/03 10:59:42;;;;;;;4.00;2.75;;;17.90;52.70;;;;;;5138587;27;20019;-76
2021/05/03 11:02:10;;;;;;;3.83;3.33;;;17.60;53.00;;;;;;5157035;27;20027;-75
2021/05/03 11:04:38;;;;;;;3.15;2.78;;;17.40;53.60;;;;;;5156452;27;20027;-75
2021/05/03 11:07:06;;;;;;;3.38;2.70;;;17.20;54.30;;;;;;5156612;27;20480;-75
2021/05/03 11:09:34;;;;;;;3.92;2.88;;;16.90;54.70;;;;;;5151884;27;20022;-75
2021/05/03 11:12:06;;;;;;;2.92;2.70;;;16.80;55.30;;;;;;5147478;27;20053;-75
2021/05/03 11:14:37;;;;;;;3.10;2.80;;;16.60;55.60;;;;;;5146474;27;20350;-75
2021/05/03 11:17:10;;;;;;;3.13;2.83;;;16.50;56.00;;;;;;5145315;27;20456;-77
2021/05/03 11:22:15;;;;;;;3.58;2.70;;;16.20;56.60;;;;;;5135768;27;20027;-75
2021/05/03 11:24:47;;;;;;;3.55;2.90;;;16.10;56.90;;;;;;5141277;27;20514;-75
2021/05/03 11:27:21;;;;;;;4.43;3.30;;;15.90;57.40;;;;;;5145840;27;20453;-75
2021/05/03 11:32:13;;;;;;;3.63;3.08;;;15.80;58.50;;;;;;5155815;27;20022;-75
2021/05/03 11:34:50;;;;;;;5.10;3.42;;;15.80;58.80;;;;;;5152063;27;20023;-75
2021/05/03 11:37:23;;;;;;;6.75;3.13;;;15.80;59.70;;;;;;5126815;27;20027;-76
2021/05/03 11:40:13;;;;;;;5.63;3.53;;;15.80;59.80;;;;;;5148798;27;20354;-75
2021/05/03 11:45:29;;;;;;;3.63;2.92;;;16.40;59.70;;;;;;5142186;27;20154;-77
2021/05/03 11:47:55;;;;;;;4.35;3.05;;;16.60;59.00;;;;;;5143590;27;20576;-77
2021/05/03 11:50:24;;;;;;;3.80;3.08;;;16.80;58.80;;;;;;5143974;27;20385;-76
2021/05/03 11:52:51;;;;;;;3.10;2.80;;;16.90;58.50;;;;;;5126520;27;20029;-77
2021/05/03 11:55:20;;;;;;;3.88;3.08;;;17.20;58.10;;;;;;5125179;27;20039;-76
2021/05/03 11:57:47;;;;;;;2.92;2.72;;;17.30;57.30;;;;;;5124693;27;20109;-76
2021/05/03 12:00:16;;;;;;;4.00;3.22;;;17.50;57.10;;;;;;5144930;27;20481;-76
2021/05/03 12:02:43;;;;;;;3.08;2.78;;;17.70;56.80;;;;;;5126216;27;20459;-75
2021/05/03 12:05:26;;;;;;;2.78;2.53;;;18.10;57.00;;;;;;5142638;27;20495;-74
2021/05/03 12:07:52;;;;;;;4.88;3.53;;;19.20;55.80;;;;;;5142931;27;20028;-75
2021/05/03 12:10:21;;;;;;;4.80;2.70;;;20.00;54.40;;;;;;5144013;27;20449;-75
2021/05/03 12:12:53;;;;;;;2.75;2.55;;;20.50;52.80;;;;;;5144836;27;20048;-75
2021/05/03 12:15:21;;;;;;;11.38;3.35;;;21.40;51.30;;;;;;5143695;27;20055;-75
2021/05/03 12:17:49;;;;;;;3.90;2.65;;;22.30;50.10;;;;;;5124201;27;20065;-75
2021/05/03 12:20:23;;;;;;;3.33;2.72;;;23.20;48.20;;;;;;5144434;27;20033;-78
2021/05/03 12:22:58;;;;;;;6.75;2.70;;;23.50;46.00;;;;;;5142297;27;20365;-76
2021/05/03 12:25:25;;;;;;;3.97;2.88;;;23.80;45.80;;;;;;5143230;27;20396;-75
2021/05/03 12:27:51;;;;;;;2.50;2.30;;;23.70;44.90;;;;;;5144716;27;20084;-75
2021/05/03 12:30:17;;;;;;;2.80;2.20;;;23.40;44.30;;;;;;5143247;27;20054;-75
2021/05/03 12:32:43;;;;;;;3.40;2.67;;;22.80;44.60;;;;;;5143409;27;20137;-75
2021/05/03 12:35:15;;;;;;;5.18;2.63;;;22.40;45.30;;;;;;5144328;27;20122;-75
2021/05/03 12:37:41;;;;;;;2.28;2.10;;;22.20;45.90;;;;;;5143838;27;20024;-75
2021/05/03 12:40:16;;;;;;;2.15;1.95;;;23.10;46.00;;;;;;5142035;27;20035;-75
2021/05/03 12:42:47;;;;;;;3.47;1.90;;;24.20;44.10;;;;;;5143499;27;20093;-74
2021/05/03 12:45:14;;;;;;;4.63;2.15;;;25.30;42.10;;;;;;5123730;27;20038;-75
2021/05/03 12:59:33;;;;;;;2.38;2.17;;;27.60;37.50;;;;;;5122396;27;20065;-76
2021/05/03 13:05:12;;;;;;;2.38;1.60;;;26.70;37.50;;;;;;5143954;27;20106;-76
2021/05/03 13:30:25;;;;;;;3.28;1.83;;;27.80;33.70;;;;;;5121869;27;20086;-76
2021/05/03 13:32:52;;;;;;;1.60;1.50;;;28.40;33.30;;;;;;5154677;27;20026;-76
2021/05/03 13:35:19;;;;;;;2.08;1.52;;;28.50;32.90;;;;;;5154699;27;20033;-76
2021/05/03 13:37:45;;;;;;;1.73;1.40;;;28.40;32.90;;;;;;5133588;27;20046;-76
2021/05/03 13:40:11;;;;;;;1.65;1.45;;;28.60;32.90;;;;;;5154027;27;20030;-76
2021/05/03 13:42:37;;;;;;;1.88;1.27;;;28.50;32.50;;;;;;5154559;27;20030;-74
2021/05/03 13:45:07;;;;;;;2.10;1.73;;;28.60;32.60;;;;;;5154695;27;20027;-75
2021/05/03 13:47:32;;;;;;;1.50;1.40;;;28.90;32.50;;;;;;5154317;27;20019;-74
2021/05/03 13:49:58;;;;;;;2.42;1.55;;;29.20;32.30;;;;;;5154406;27;20368;-75
2021/05/03 13:52:24;;;;;;;1.60;1.50;;;29.20;31.80;;;;;;5154471;27;20035;-74
2021/05/03 13:54:49;;;;;;;1.63;1.45;;;28.90;31.80;;;;;;5154079;27;20038;-74
2021/05/03 13:57:15;;;;;;;2.17;1.40;;;29.10;31.90;;;;;;5156070;27;20031;-74
2021/05/03 13:59:41;;;;;;;4.07;1.60;;;29.30;31.50;;;;;;5158323;27;20116;-75
2021/05/03 14:02:08;;;;;;;2.13;1.80;;;29.40;30.90;;;;;;5158176;27;20075;-75
2021/05/03 14:04:34;;;;;;;2.70;2.42;;;29.40;30.80;;;;;;5158870;27;20062;-76